Time;durP1;ratioP1;P1;durP2;ratioP2;P2;SDS_P1;SDS_P2;PMS_P1;PMS_P2;Temp;Humidity;BMP_temperature;BMP_pressure;BME280_temperature;BME280_humidity;BME280_pressure;Samples;Min_cycle;Max_cycle;Signal;HPM_P1;HPM_P2
2023/11/07 00:01:22;;;;;;;0.15;0.15;;;;;;;13.52;100.00;98463.88;7388187;19;20350;-82
2023/11/07 00:03:48;;;;;;;3.10;0.47;;;;;;;12.57;100.00;98461.44;7392483;19;20406;-82
2023/11/07 00:06:14;;;;;;;0.60;0.60;;;;;;;12.17;100.00;98468.63;7387936;19;20096;-82
2023/11/07 00:08:40;;;;;;;0.15;0.15;;;;;;;14.67;92.02;98468.19;7387302;19;20584;-82
2023/11/07 00:11:06;;;;;;;0.43;0.10;;;;;;;13.11;98.63;98472.53;7389225;19;20013;-83
2023/11/07 00:13:33;;;;;;;0.15;0.15;;;;;;;11.52;100.00;98464.25;7387932;19;20062;-82
2023/11/07 00:15:59;;;;;;;0.30;0.30;;;;;;;10.43;100.00;98474.00;7389644;19;20007;-82
2023/11/07 00:18:25;;;;;;;0.25;0.25;;;;;;;10.97;100.00;98487.56;7388757;19;20120;-82
2023/11/07 00:20:51;;;;;;;0.20;0.20;;;;;;;11.02;100.00;98472.84;7389217;19;20014;-82
2023/11/07 00:23:17;;;;;;;0.63;0.63;;;;;;;12.23;100.00;98481.78;7387510;19;20038;-81
2023/11/07 00:25:43;;;;;;;3.60;0.57;;;;;;;12.26;100.00;98481.50;7396101;19;20084;-82
2023/11/07 00:28:10;;;;;;;0.30;0.28;;;;;;;13.38;100.00;98481.88;7394507;19;20021;-82
2023/11/07 00:30:36;;;;;;;0.20;0.20;;;;;;;15.37;90.86;98472.16;7393672;19;20015;-82
2023/11/07 00:33:02;;;;;;;0.20;0.20;;;;;;;14.48;97.29;98482.28;7394836;19;20046;-82
2023/11/07 00:35:29;;;;;;;0.77;0.57;;;;;;;15.60;92.83;98478.84;7395823;19;20026;-81
2023/11/07 00:37:56;;;;;;;0.20;0.20;;;;;;;14.09;97.49;98482.91;7392435;19;20007;-82
2023/11/07 00:40:22;;;;;;;0.20;0.15;;;;;;;14.52;100.00;98491.13;7394896;19;20011;-82
2023/11/07 00:42:49;;;;;;;0.77;0.63;;;;;;;15.75;90.76;98476.19;7396862;19;20346;-82
2023/11/07 00:45:15;;;;;;;0.40;0.40;;;;;;;15.65;90.38;98477.97;7393333;19;20039;-81
2023/11/07 00:47:41;;;;;;;1.85;0.43;;;;;;;17.37;78.68;98480.75;7393078;19;20489;-82
2023/11/07 00:50:10;;;;;;;0.10;0.10;;;;;;;16.12;83.10;98481.47;7393527;19;20014;-82
2023/11/07 00:52:38;;;;;;;0.10;0.10;;;;;;;15.36;89.22;98487.47;7392426;19;20070;-82
2023/11/07 00:55:07;;;;;;;0.20;0.20;;;;;;;15.26;90.19;98483.63;7395195;19;20007;-82
2023/11/07 00:57:33;;;;;;;0.60;0.43;;;;;;;15.31;90.37;98480.69;7393222;19;20011;-81
2023/11/07 01:00:00;;;;;;;0.10;0.10;;;;;;;14.93;94.28;98480.19;7395131;19;20030;-82
2023/11/07 01:02:26;;;;;;;0.30;0.30;;;;;;;14.81;94.07;98484.47;7392921;19;20484;-82
2023/11/07 01:04:53;;;;;;;0.10;0.10;;;;;;;14.44;96.81;98487.44;7392882;19;20021;-82
2023/11/07 01:07:19;;;;;;;0.20;0.20;;;;;;;14.74;94.79;98479.53;7394290;19;20018;-81
2023/11/07 01:09:46;;;;;;;0.40;0.32;;;;;;;14.83;94.83;98481.91;7395852;19;20021;-82
2023/11/07 01:12:13;;;;;;;0.10;0.10;;;;;;;14.69;95.13;98476.81;7391382;19;20091;-81
2023/11/07 01:14:40;;;;;;;0.20;0.20;;;;;;;14.71;94.84;98480.59;7392258;19;20357;-82
2023/11/07 01:17:06;;;;;;;0.10;0.10;;;;;;;15.13;92.29;98493.56;7393968;19;20014;-82
2023/11/07 01:19:32;;;;;;;0.20;0.20;;;;;;;15.96;87.65;98488.22;7394261;19;20030;-82
2023/11/07 01:21:59;;;;;;;0.10;0.10;;;;;;;15.63;88.34;98481.31;7396264;19;20011;-82
2023/11/07 01:24:25;;;;;;;0.30;0.20;;;;;;;17.24;80.93;98482.91;7393813;19;20918;-82
2023/11/07 01:26:51;;;;;;;0.10;0.10;;;;;;;18.08;75.99;98485.50;7394602;19;20018;-82
2023/11/07 01:29:17;;;;;;;0.10;0.10;;;;;;;17.17;75.91;98486.47;7391033;19;20481;-81
2023/11/07 01:31:48;;;;;;;0.10;0.10;;;;;;;17.21;73.13;98490.44;7390965;19;20021;-82
2023/11/07 01:34:14;;;;;;;0.30;0.30;;;;;;;16.16;81.29;98489.56;7392801;19;20002;-82
2023/11/07 01:36:40;;;;;;;1.13;1.05;;;;;;;16.06;80.74;98499.75;7389782;19;20095;-82
2023/11/07 01:39:08;;;;;;;0.28;0.28;;;;;;;14.84;90.48;98497.41;7392832;19;20074;-82
2023/11/07 01:41:35;;;;;;;0.10;0.10;;;;;;;17.23;76.38;98492.69;7393384;19;20039;-82
2023/11/07 01:44:01;;;;;;;1.35;1.05;;;;;;;15.62;81.80;98495.88;7392013;19;20023;-82
2023/11/07 01:46:27;;;;;;;0.10;0.10;;;;;;;16.45;79.84;98497.53;7389915;19;20014;-82
2023/11/07 01:48:54;;;;;;;0.10;0.10;;;;;;;14.55;92.62;98501.25;7395549;19;20018;-81
2023/11/07 01:51:20;;;;;;;0.17;0.17;;;;;;;19.27;71.92;98499.47;7393042;19;20014;-81
2023/11/07 01:53:47;;;;;;;0.30;0.30;;;;;;;17.50;73.02;98499.59;7392086;19;20061;-82
2023/11/07 01:56:14;;;;;;;0.20;0.20;;;;;;;22.56;58.06;98494.91;7393037;19;20018;-82
2023/11/07 01:58:40;;;;;;;0.10;0.10;;;;;;;27.91;42.43;98484.22;7390636;19;20080;-81
2023/11/07 02:01:07;;;;;;;0.20;0.20;;;;;;;21.94;53.64;98500.53;7390160;19;20010;-81
2023/11/07 02:03:33;;;;;;;0.28;0.28;;;;;;;32.84;33.74;98484.69;7390626;19;20345;-82
2023/11/07 02:05:59;;;;;;;0.38;0.38;;;;;;;27.40;40.52;98491.25;7391615;19;20006;-82
2023/11/07 02:08:26;;;;;;;0.10;0.10;;;;;;;21.09;46.74;98499.94;7393484;19;20422;-82
2023/11/07 02:10:52;;;;;;;1.25;0.20;;;;;;;29.33;39.94;98495.53;7393441;19;20334;-82
2023/11/07 02:13:18;;;;;;;0.20;0.20;;;;;;;29.53;35.20;98497.31;7391669;19;20369;-81
2023/11/07 02:15:44;;;;;;;0.20;0.20;;;;;;;18.39;49.53;98522.22;7394155;19;20035;-82
2023/11/07 02:18:11;;;;;;;0.20;0.20;;;;;;;22.41;49.13;98503.66;7392189;19;20011;-82
2023/11/07 02:20:38;;;;;;;0.10;0.10;;;;;;;16.84;59.31;98519.06;7391422;19;20485;-82
2023/11/07 02:23:09;;;;;;;0.10;0.10;;;;;;;15.89;63.98;98512.13;7392263;19;20015;-82
2023/11/07 02:25:38;;;;;;;0.52;0.52;;;;;;;15.56;67.06;98512.84;7392522;19;20037;-82
2023/11/07 02:28:05;;;;;;;0.10;0.10;;;;;;;14.86;67.82;98511.66;7392965;19;20008;-82
2023/11/07 02:30:32;;;;;;;1.20;0.40;;;;;;;14.91;71.26;98513.59;7390204;19;20002;-82
2023/11/07 02:33:04;;;;;;;0.10;0.10;;;;;;;16.50;66.05;98526.81;7392658;19;20382;-82
2023/11/07 02:35:31;;;;;;;0.38;0.38;;;;;;;19.37;57.07;98511.69;7389605;19;20089;-81
2023/11/07 02:37:57;;;;;;;0.40;0.40;;;;;;;17.88;55.15;98523.03;7392097;19;20018;-82
2023/11/07 02:40:24;;;;;;;0.40;0.40;;;;;;;21.78;53.46;98525.44;7392044;19;20492;-81
2023/11/07 02:42:50;;;;;;;6.03;0.45;;;;;;;19.06;54.10;98517.94;7391121;19;20010;-81
2023/11/07 02:45:16;;;;;;;0.85;0.85;;;;;;;19.19;53.38;98515.66;7389060;19;20013;-82
2023/11/07 02:47:42;;;;;;;0.20;0.20;;;;;;;18.85;57.20;98509.69;7391851;19;20038;-82
2023/11/07 02:50:10;;;;;;;0.28;0.28;;;;;;;17.47;56.36;98517.56;7390894;19;20027;-81
2023/11/07 02:52:39;;;;;;;0.80;0.50;;;;;;;18.81;54.81;98514.94;7390383;19;20022;-81
2023/11/07 02:55:06;;;;;;;0.20;0.20;;;;;;;18.92;54.50;98509.69;7389506;19;20028;-81
2023/11/07 02:57:32;;;;;;;0.15;0.15;;;;;;;19.14;53.83;98505.31;7393127;19;20017;-80
2023/11/07 02:59:58;;;;;;;0.30;0.30;;;;;;;18.81;54.69;98498.78;7389562;19;20069;-80
2023/11/07 03:02:24;;;;;;;0.17;0.17;;;;;;;18.75;53.06;98512.31;7390244;19;20021;-81
2023/11/07 03:04:54;;;;;;;0.60;0.60;;;;;;;21.82;49.10;98509.56;7391369;19;20019;-81
2023/11/07 03:07:21;;;;;;;0.40;0.40;;;;;;;21.64;46.89;98501.63;7391338;19;20021;-82
2023/11/07 03:09:47;;;;;;;0.20;0.20;;;;;;;21.25;47.71;98511.09;7389958;19;20009;-81
2023/11/07 03:12:14;;;;;;;0.15;0.15;;;;;;;24.70;45.08;98505.09;7392008;19;20018;-82
2023/11/07 03:14:42;;;;;;;1.40;0.40;;;;;;;23.82;39.79;98497.34;7388496;19;19999;-82
2023/11/07 03:17:09;;;;;;;0.50;0.28;;;;;;;25.64;39.13;98498.69;7389810;19;20465;-82
2023/11/07 03:19:35;;;;;;;0.28;0.28;;;;;;;33.34;30.48;98482.16;7388540;19;20018;-82
2023/11/07 03:22:01;;;;;;;0.30;0.30;;;;;;;22.52;39.11;98497.41;7390982;19;20010;-82
2023/11/07 03:24:27;;;;;;;2.05;0.95;;;;;;;23.91;39.44;98496.59;7390021;19;20030;-82
2023/11/07 03:26:53;;;;;;;0.30;0.30;;;;;;;27.99;34.34;98498.25;7389039;19;20007;-81
2023/11/07 03:29:20;;;;;;;0.25;0.25;;;;;;;18.42;43.94;98507.00;7390093;19;20021;-82
2023/11/07 03:31:46;;;;;;;0.85;0.47;;;;;;;15.54;53.51;98509.84;7389312;19;20010;-82
2023/11/07 03:34:12;;;;;;;0.68;0.65;;;;;;;23.02;40.15;98502.69;7393033;19;20039;-82
2023/11/07 03:36:38;;;;;;;0.20;0.20;;;;;;;22.78;41.57;98498.75;7389403;19;20081;-82
2023/11/07 03:39:06;;;;;;;0.40;0.40;;;;;;;25.11;39.14;98497.25;7389928;19;20681;-82
2023/11/07 03:41:32;;;;;;;0.52;0.52;;;;;;;20.46;43.59;98507.25;7388642;19;20066;-81
2023/11/07 03:43:58;;;;;;;0.10;0.10;;;;;;;22.00;41.71;98501.78;7390637;19;20007;-81
2023/11/07 03:46:25;;;;;;;0.35;0.35;;;;;;;20.77;48.66;98502.84;7389100;19;20007;-82
2023/11/07 03:48:52;;;;;;;0.20;0.20;;;;;;;21.21;47.93;98499.44;7387676;19;20010;-81
2023/11/07 03:51:18;;;;;;;0.10;0.10;;;;;;;25.34;38.86;98495.28;7388227;19;20078;-81
2023/11/07 03:53:44;;;;;;;0.20;0.20;;;;;;;28.33;33.80;98498.06;7390716;19;20010;-82
2023/11/07 03:56:10;;;;;;;0.40;0.40;;;;;;;30.83;31.76;98487.81;7389168;19;20011;-82
2023/11/07 03:58:36;;;;;;;0.30;0.30;;;;;;;23.80;37.47;98505.75;7387430;19;20015;-82
2023/11/07 04:01:03;;;;;;;0.10;0.10;;;;;;;22.89;39.19;98512.34;7389154;19;20014;-81
2023/11/07 04:03:29;;;;;;;0.20;0.20;;;;;;;29.90;33.94;98499.91;7387636;19;20018;-82
2023/11/07 04:05:55;;;;;;;0.10;0.10;;;;;;;28.28;33.75;98513.56;7390772;19;20475;-82
2023/11/07 04:08:22;;;;;;;0.10;0.10;;;;;;;34.22;28.28;98508.28;7389453;19;20362;-82
2023/11/07 04:10:48;;;;;;;0.30;0.30;;;;;;;35.18;27.12;98503.97;7389459;19;20010;-82
2023/11/07 04:13:14;;;;;;;0.68;0.68;;;;;;;31.94;30.21;98513.56;7390276;19;20007;-82
2023/11/07 04:15:40;;;;;;;0.10;0.10;;;;;;;18.73;43.03;98525.50;7386791;19;20022;-81
2023/11/07 04:18:09;;;;;;;0.10;0.10;;;;;;;21.95;39.94;98524.69;7389017;19;20112;-81
2023/11/07 04:20:37;;;;;;;0.20;0.20;;;;;;;22.39;39.78;98517.63;7388801;19;20472;-82
2023/11/07 04:23:04;;;;;;;0.28;0.28;;;;;;;19.69;42.46;98522.31;7389155;19;20506;-82
2023/11/07 04:25:31;;;;;;;0.13;0.13;;;;;;;18.84;44.46;98520.19;7386626;19;20386;-82
2023/11/07 04:27:57;;;;;;;0.57;0.57;;;;;;;24.80;40.42;98505.81;7388504;19;20018;-82
2023/11/07 04:30:24;;;;;;;0.10;0.10;;;;;;;23.11;38.37;98516.13;7386411;19;20076;-82
2023/11/07 04:32:50;;;;;;;0.10;0.10;;;;;;;22.60;40.30;98514.34;7389524;19;20010;-82
2023/11/07 04:35:16;;;;;;;0.15;0.15;;;;;;;19.45;44.29;98515.25;7388653;19;20005;-81
2023/11/07 04:37:42;;;;;;;0.10;0.10;;;;;;;18.86;45.88;98523.22;7388223;19;20472;-82
2023/11/07 04:40:09;;;;;;;0.20;0.20;;;;;;;18.91;45.93;98513.06;7388144;19;20014;-82
2023/11/07 04:42:35;;;;;;;0.25;0.17;;;;;;;18.91;46.53;98518.69;7390845;19;20018;-82
2023/11/07 04:45:01;;;;;;;0.10;0.10;;;;;;;18.34;47.37;98518.28;7387099;19;20015;-82
2023/11/07 04:47:28;;;;;;;0.10;0.10;;;;;;;17.74;48.72;98518.84;7385883;19;20363;-82
2023/11/07 04:49:59;;;;;;;0.13;0.13;;;;;;;17.88;48.71;98523.03;7388820;19;20010;-82
2023/11/07 04:52:25;;;;;;;0.20;0.20;;;;;;;18.21;48.35;98524.06;7390682;19;20374;-82
2023/11/07 04:54:51;;;;;;;0.15;0.15;;;;;;;18.09;48.37;98526.47;7387687;19;20038;-82
2023/11/07 04:57:17;;;;;;;1.85;0.35;;;;;;;19.97;46.36;98522.00;7388677;19;20019;-81
2023/11/07 04:59:43;;;;;;;0.10;0.10;;;;;;;18.19;48.45;98541.53;7386569;19;20030;-82
2023/11/07 05:02:10;;;;;;;0.17;0.17;;;;;;;21.74;42.84;98527.97;7386079;19;20017;-81
2023/11/07 05:04:37;;;;;;;0.10;0.10;;;;;;;21.95;41.84;98525.44;7386241;19;20024;-82
2023/11/07 05:07:03;;;;;;;0.40;0.38;;;;;;;20.80;43.52;98530.00;7386224;19;20017;-82
2023/11/07 05:09:30;;;;;;;0.10;0.10;;;;;;;22.06;40.73;98524.94;7388249;19;20015;-82
2023/11/07 05:11:57;;;;;;;0.10;0.10;;;;;;;18.83;45.63;98526.41;7397269;19;20469;-82
2023/11/07 05:14:23;;;;;;;0.25;0.25;;;;;;;19.01;46.31;98522.47;7394521;19;20505;-82
2023/11/07 05:16:49;;;;;;;0.32;0.32;;;;;;;18.22;46.38;98530.44;7394781;19;20006;-82
2023/11/07 05:19:17;;;;;;;0.10;0.10;;;;;;;17.96;47.61;98546.34;7393344;19;20014;-82
2023/11/07 05:21:43;;;;;;;0.45;0.45;;;;;;;19.96;45.66;98539.53;7390824;19;20070;-82
2023/11/07 05:24:09;;;;;;;0.35;0.35;;;;;;;22.21;42.25;98535.31;7393435;19;20032;-83
2023/11/07 05:26:36;;;;;;;0.20;0.20;;;;;;;23.31;40.89;98523.34;7393528;19;20017;-82
2023/11/07 05:29:02;;;;;;;0.25;0.25;;;;;;;21.34;42.49;98533.09;7393520;19;20010;-81
2023/11/07 05:31:30;;;;;;;0.32;0.32;;;;;;;22.00;41.56;98521.63;7392780;19;20002;-82
2023/11/07 05:33:56;;;;;;;0.30;0.30;;;;;;;22.63;42.08;98535.13;7393248;19;20003;-82
2023/11/07 05:36:22;;;;;;;0.15;0.15;;;;;;;23.37;41.10;98529.53;7396976;19;20011;-82
2023/11/07 05:38:49;;;;;;;5.82;0.73;;;;;;;24.25;39.41;98532.53;7392848;19;20014;-82
2023/11/07 05:41:16;;;;;;;0.30;0.30;;;;;;;23.84;40.24;98525.97;7394827;19;20019;-82
2023/11/07 05:43:43;;;;;;;0.13;0.13;;;;;;;23.61;40.16;98536.25;7393201;19;20031;-82
2023/11/07 05:46:09;;;;;;;0.20;0.20;;;;;;;24.10;39.88;98532.84;7394854;19;20010;-82
2023/11/07 05:48:36;;;;;;;0.10;0.10;;;;;;;24.71;39.01;98532.94;7392753;19;20018;-82
2023/11/07 05:51:03;;;;;;;0.20;0.20;;;;;;;25.80;37.83;98531.13;7395425;19;20018;-81
2023/11/07 05:53:29;;;;;;;1.55;0.43;;;;;;;26.00;37.75;98529.59;7394363;19;20424;-82
2023/11/07 05:55:55;;;;;;;0.10;0.10;;;;;;;25.21;38.91;98521.47;7396146;19;20571;-82
2023/11/07 05:58:22;;;;;;;0.10;0.10;;;;;;;25.23;39.16;98530.16;7396836;19;20010;-82
2023/11/07 06:00:48;;;;;;;0.10;0.10;;;;;;;23.29;40.75;98537.41;7391839;19;20017;-81
2023/11/07 06:03:14;;;;;;;0.25;0.25;;;;;;;24.00;40.90;98529.22;7393162;19;20485;-82
2023/11/07 06:05:41;;;;;;;0.30;0.30;;;;;;;19.87;45.49;98531.66;7394906;19;20078;-82
2023/11/07 06:08:09;;;;;;;0.10;0.10;;;;;;;20.44;45.97;98538.19;7395782;19;20021;-82
2023/11/07 06:10:36;;;;;;;0.10;0.10;;;;;;;20.61;45.63;98543.91;7392466;19;20070;-82
2023/11/07 06:13:05;;;;;;;0.40;0.28;;;;;;;22.92;44.71;98547.31;7391342;19;20469;-82
2023/11/07 06:15:32;;;;;;;0.10;0.10;;;;;;;20.31;46.36;98552.59;7391180;19;20039;-82
2023/11/07 06:18:00;;;;;;;0.32;0.32;;;;;;;19.75;48.84;98558.84;7394466;19;19999;-82
2023/11/07 06:20:26;;;;;;;0.10;0.10;;;;;;;21.89;46.80;98561.81;7391193;19;20033;-82
2023/11/07 06:22:52;;;;;;;0.13;0.13;;;;;;;21.57;46.30;98559.88;7394500;19;20014;-81
2023/11/07 06:25:19;;;;;;;0.20;0.20;;;;;;;23.45;44.58;98561.41;7390725;19;20015;-79
2023/11/07 06:27:47;;;;;;;0.25;0.25;;;;;;;24.27;43.79;98552.56;7392336;19;20010;-80
2023/11/07 06:30:16;;;;;;;0.65;0.52;;;;;;;24.54;42.86;98558.03;7393809;19;20021;-80
2023/11/07 06:32:42;;;;;;;0.10;0.10;;;;;;;25.58;41.98;98558.91;7394088;19;20006;-81
2023/11/07 06:35:08;;;;;;;0.45;0.20;;;;;;;24.79;42.76;98558.44;7394211;19;20009;-80
2023/11/07 06:37:35;;;;;;;0.10;0.10;;;;;;;22.81;45.19;98571.34;7394653;19;20472;-80
2023/11/07 06:40:13;;;;;;;0.10;0.10;;;;;;;22.95;45.50;98568.88;7393546;19;20065;-81
2023/11/07 06:45:56;;;;;;;0.10;0.10;;;;;;;22.44;61.20;98576.22;7394093;19;20337;-80
2023/11/07 06:48:22;;;;;;;0.10;0.00;;;;;;;24.69;53.45;98574.78;7422578;19;20014;-79
2023/11/07 06:50:49;;;;;;;0.30;0.20;;;;;;;25.43;47.48;98571.47;7425335;19;20465;-79
2023/11/07 06:53:15;;;;;;;0.10;0.10;;;;;;;21.62;55.11;98583.63;7425023;19;20015;-79
2023/11/07 06:55:41;;;;;;;0.10;0.10;;;;;;;21.72;57.01;98581.66;7424612;19;19998;-79
2023/11/07 06:58:08;;;;;;;0.28;0.28;;;;;;;20.75;57.98;98576.25;7423167;19;20018;-79
2023/11/07 07:00:34;;;;;;;4.28;1.45;;;;;;;20.93;58.38;98582.72;7423225;19;20362;-78
2023/11/07 07:03:01;;;;;;;0.82;0.22;;;;;;;20.45;59.31;98587.75;7424731;19;20014;-79
2023/11/07 07:05:27;;;;;;;1.05;0.47;;;;;;;20.54;59.33;98587.13;7423913;19;20091;-79
2023/11/07 07:07:54;;;;;;;0.35;0.30;;;;;;;21.43;59.23;98589.09;7422855;19;20073;-80
2023/11/07 07:10:20;;;;;;;5.47;1.00;;;;;;;20.24;60.15;98598.63;7421562;19;20498;-80
2023/11/07 07:12:47;;;;;;;0.77;0.50;;;;;;;20.30;60.00;98596.31;7421292;19;20018;-80
2023/11/07 07:15:13;;;;;;;0.10;0.10;;;;;;;20.92;59.19;98593.28;7425699;19;20022;-80
2023/11/07 07:17:39;;;;;;;1.58;1.48;;;;;;;20.83;59.05;98602.44;7424893;19;20010;-80
2023/11/07 07:20:11;;;;;;;0.10;0.10;;;;;;;20.45;59.75;98601.91;7423233;19;20049;-80
2023/11/07 07:22:41;;;;;;;0.30;0.20;;;;;;;20.63;59.69;98605.56;7425630;19;20060;-80
2023/11/07 07:25:08;;;;;;;1.05;0.95;;;;;;;20.06;62.66;98611.09;7423402;19;20014;-79
2023/11/07 07:27:34;;;;;;;0.10;0.10;;;;;;;19.98;62.78;98613.19;7424337;19;20368;-80
2023/11/07 07:30:01;;;;;;;0.10;0.10;;;;;;;20.05;62.80;98609.59;7424453;19;20003;-79
2023/11/07 07:32:27;;;;;;;0.10;0.10;;;;;;;24.10;56.01;98607.53;7421689;19;20014;-80
2023/11/07 07:34:53;;;;;;;0.80;0.65;;;;;;;26.17;49.39;98600.66;7423821;19;20015;-81
2023/11/07 07:37:20;;;;;;;0.10;0.10;;;;;;;25.80;48.48;98608.13;7424220;19;20048;-80
2023/11/07 07:39:47;;;;;;;0.10;0.10;;;;;;;24.46;51.59;98625.78;7422700;19;20476;-79
2023/11/07 07:42:17;;;;;;;0.45;0.20;;;;;;;24.40;50.47;98623.25;7425075;19;20028;-79
2023/11/07 07:44:44;;;;;;;0.50;0.35;;;;;;;21.80;56.14;98630.47;7420034;19;20095;-79
2023/11/07 07:47:11;;;;;;;0.10;0.10;;;;;;;21.54;60.02;98637.53;7420545;19;20007;-80
2023/11/07 07:49:40;;;;;;;0.10;0.10;;;;;;;16.53;83.78;98647.31;7423402;19;20060;-80
2023/11/07 07:52:09;;;;;;;0.10;0.10;;;;;;;17.79;77.18;98644.66;7422816;19;20078;-80
2023/11/07 07:54:37;;;;;;;0.38;0.38;;;;;;;24.04;60.10;98632.69;7422213;19;20014;-80
2023/11/07 07:57:09;;;;;;;0.35;0.28;;;;;;;23.79;58.08;98629.38;7396579;19;20016;-80
2023/11/07 07:59:40;;;;;;;0.10;0.10;;;;;;;23.40;57.44;98627.03;7392537;19;20019;-80
2023/11/07 08:02:07;;;;;;;0.10;0.10;;;;;;;22.79;56.45;98645.00;7395104;19;20010;-80
2023/11/07 08:04:33;;;;;;;0.10;0.10;;;;;;;23.64;56.82;98640.25;7393289;19;20011;-80
2023/11/07 08:07:00;;;;;;;0.20;0.20;;;;;;;24.74;53.19;98627.81;7393388;19;20010;-81
2023/11/07 08:09:26;;;;;;;0.30;0.20;;;;;;;22.61;55.78;98641.47;7393090;19;20034;-80
2023/11/07 08:12:08;;;;;;;0.55;0.40;;;;;;;22.89;55.64;98642.22;7394511;19;20018;-79
2023/11/07 08:14:35;;;;;;;0.10;0.10;;;;;;;24.80;53.28;98636.81;7392131;19;20007;-80
2023/11/07 08:17:02;;;;;;;0.10;0.10;;;;;;;25.39;51.43;98639.59;7392797;19;20009;-79
2023/11/07 08:19:28;;;;;;;0.10;0.00;;;;;;;25.06;50.91;98652.94;7392018;19;20014;-79
2023/11/07 08:21:54;;;;;;;0.13;0.05;;;;;;;25.58;50.11;98658.72;7394288;19;20003;-79
2023/11/07 08:24:21;;;;;;;0.10;0.00;;;;;;;25.74;49.28;98651.28;7391656;19;20006;-80
2023/11/07 08:26:50;;;;;;;0.03;0.03;;;;;;;23.00;56.78;98667.25;7394021;19;20009;-78
2023/11/07 08:29:16;;;;;;;0.57;0.40;;;;;;;22.92;57.84;98658.06;7394259;19;20407;-79
2023/11/07 08:31:42;;;;;;;0.20;0.20;;;;;;;23.85;54.36;98657.50;7392783;19;20006;-83
2023/11/07 08:34:09;;;;;;;0.30;0.30;;;;;;;22.77;56.18;98663.97;7391085;19;20470;-84
2023/11/07 08:36:37;;;;;;;0.10;0.10;;;;;;;25.23;52.30;98666.97;7387692;19;20019;-84
2023/11/07 08:39:04;;;;;;;0.10;0.10;;;;;;;26.08;50.42;98667.88;7389310;19;20003;-84
2023/11/07 08:41:30;;;;;;;0.20;0.20;;;;;;;26.35;49.53;98666.78;7389859;19;20010;-84
2023/11/07 08:43:56;;;;;;;0.10;0.08;;;;;;;26.53;48.66;98677.25;7389950;19;20357;-84
2023/11/07 08:46:25;;;;;;;0.10;0.10;;;;;;;23.92;51.71;98677.28;7390931;19;20013;-84
2023/11/07 08:48:53;;;;;;;0.52;0.52;;;;;;;24.15;53.01;98687.53;7389140;19;20043;-84
2023/11/07 08:51:19;;;;;;;0.38;0.38;;;;;;;19.36;59.05;98699.34;7391559;19;20022;-84
2023/11/07 08:53:45;;;;;;;0.10;0.00;;;;;;;16.78;94.98;98700.44;7392189;19;20014;-84
2023/11/07 08:56:14;;;;;;;0.10;0.10;;;;;;;9.52;100.00;98716.72;7391078;19;20021;-84
2023/11/07 08:58:41;;;;;;;0.20;0.20;;;;;;;9.28;100.00;98727.41;7390284;19;20343;-84
2023/11/07 09:01:10;;;;;;;1.15;0.88;;;;;;;16.46;100.00;98714.66;7387042;19;20015;-83
2023/11/07 09:03:37;;;;;;;0.20;0.20;;;;;;;14.49;100.00;98721.91;7388661;19;20015;-84
2023/11/07 09:06:05;;;;;;;0.20;0.20;;;;;;;14.91;100.00;98731.50;7390489;19;20793;-84
2023/11/07 09:08:32;;;;;;;3.80;1.10;;;;;;;13.90;100.00;98722.88;7387594;19;20010;-84
2023/11/07 09:10:58;;;;;;;4.90;0.30;;;;;;;14.14;100.00;98725.63;7381611;19;20074;-84
2023/11/07 09:13:27;;;;;;;0.75;0.52;;;;;;;13.70;100.00;98728.91;7390150;19;20035;-84
2023/11/07 09:15:54;;;;;;;0.20;0.10;;;;;;;12.83;100.00;98734.69;7390793;19;20445;-84
2023/11/07 09:18:20;;;;;;;0.10;0.00;;;;;;;12.22;100.00;98731.47;7389427;19;20086;-84
2023/11/07 09:20:46;;;;;;;0.10;0.10;;;;;;;17.14;100.00;98733.06;7389066;19;20066;-84
2023/11/07 09:23:12;;;;;;;0.40;0.40;;;;;;;14.05;100.00;98730.84;7392297;19;20414;-86
2023/11/07 09:25:39;;;;;;;0.20;0.20;;;;;;;18.57;92.49;98730.56;7391206;19;19998;-85
2023/11/07 09:28:06;;;;;;;0.10;0.10;;;;;;;20.76;90.16;98729.81;7388869;19;20011;-85
2023/11/07 09:30:33;;;;;;;0.22;0.20;;;;;;;29.44;59.13;98719.19;7390722;19;20023;-86
2023/11/07 09:32:59;;;;;;;0.20;0.20;;;;;;;27.18;54.64;98718.63;7388820;19;20028;-86
2023/11/07 09:35:25;;;;;;;0.30;0.30;;;;;;;16.51;100.00;98739.88;7388349;19;20010;-86
2023/11/07 09:37:51;;;;;;;0.55;0.30;;;;;;;22.59;80.49;98737.78;7390253;19;20381;-85
2023/11/07 09:40:17;;;;;;;0.10;0.10;;;;;;;24.23;71.83;98725.09;7388764;19;20014;-84
2023/11/07 09:42:48;;;;;;;0.10;0.10;;;;;;;27.37;60.82;98727.75;7389445;19;20029;-85
2023/11/07 09:45:16;;;;;;;0.32;0.20;;;;;;;16.97;100.00;98743.19;7392574;19;20066;-89
2023/11/07 09:47:47;;;;;;;0.10;0.08;;;;;;;13.82;100.00;98760.34;7388771;19;20069;-87
2023/11/07 09:50:15;;;;;;;;;;;;;;;10.59;100.00;98759.94;7390844;19;20006;-86
2023/11/07 09:52:44;;;;;;;0.08;0.08;;;;;;;22.18;89.30;98741.44;7391363;19;19918;-86
2023/11/07 09:55:14;;;;;;;0.10;0.00;;;;;;;14.24;100.00;98765.22;7390043;19;20091;-87
2023/11/07 09:57:47;;;;;;;0.10;0.10;;;;;;;14.51;100.00;98752.94;7388766;19;20023;-87
2023/11/07 10:00:22;;;;;;;0.00;0.00;;;;;;;14.70;100.00;98764.94;7388450;19;20475;-87
2023/11/07 10:02:49;;;;;;;0.10;0.00;;;;;;;14.91;100.00;98770.75;7390039;19;20017;-87
2023/11/07 10:05:18;;;;;;;0.10;0.05;;;;;;;15.10;100.00;98782.69;7390762;19;20100;-87
2023/11/07 10:07:49;;;;;;;5.28;0.55;;;;;;;18.32;100.00;98785.09;7392054;19;20018;-87
2023/11/07 10:10:16;;;;;;;0.10;0.10;;;;;;;21.65;84.40;98783.66;7390522;19;20022;-87
2023/11/07 10:12:43;;;;;;;0.10;0.10;;;;;;;32.54;51.41;98763.22;7389435;19;20331;-87
2023/11/07 10:15:19;;;;;;;0.10;0.10;;;;;;;33.39;41.48;98764.56;7390391;19;20026;-84
2023/11/07 10:18:06;;;;;;;0.10;0.00;;;;;;;36.45;36.52;98765.47;7388554;19;20741;-85
2023/11/07 10:20:34;;;;;;;2.10;0.45;;;;;;;30.67;41.68;98780.25;7385999;19;20014;-85
2023/11/07 10:23:00;;;;;;;0.10;0.00;;;;;;;32.80;41.59;98778.72;7388538;19;20010;-84
2023/11/07 10:25:34;;;;;;;5.15;0.52;;;;;;;32.25;44.38;98789.28;7388912;19;20082;-83
2023/11/07 10:28:08;;;;;;;0.68;0.17;;;;;;;24.06;74.11;98795.00;7387772;19;20007;-84
2023/11/07 10:30:35;;;;;;;0.10;0.00;;;;;;;25.86;56.60;98799.72;7388382;19;19999;-84
2023/11/07 10:33:03;;;;;;;0.17;0.15;;;;;;;27.72;55.85;98807.88;7390064;19;20421;-84
2023/11/07 10:35:31;;;;;;;0.00;0.00;;;;;;;31.95;47.67;98800.19;7390677;19;20014;-84
2023/11/07 10:37:57;;;;;;;0.10;0.10;;;;;;;23.11;64.37;98817.22;7387802;19;20026;-84
2023/11/07 10:40:24;;;;;;;0.20;0.08;;;;;;;23.88;64.90;98810.66;7386551;19;20015;-84
2023/11/07 10:42:50;;;;;;;0.10;0.10;;;;;;;22.52;69.70;98812.38;7387479;19;20014;-83
2023/11/07 10:45:18;;;;;;;0.10;0.08;;;;;;;22.60;73.43;98806.66;7387463;19;20486;-82
2023/11/07 10:47:45;;;;;;;1.33;0.55;;;;;;;23.22;73.30;98805.31;7387355;19;20121;-83
2023/11/07 10:50:17;;;;;;;0.10;0.00;;;;;;;23.18;73.07;98811.44;7389232;19;20018;-84
2023/11/07 10:52:47;;;;;;;0.25;0.20;;;;;;;24.95;67.07;98807.41;7388554;19;20010;-84
2023/11/07 10:55:14;;;;;;;;;;;;;;;33.00;45.35;98795.41;7387923;19;20009;-84
2023/11/07 10:57:46;;;;;;;0.10;0.10;;;;;;;28.52;52.12;98801.34;7386802;19;20334;-85
2023/11/07 11:00:17;;;;;;;0.10;0.00;;;;;;;23.17;65.22;98815.63;7386759;19;20078;-83
2023/11/07 11:02:50;;;;;;;1.10;0.10;;;;;;;27.98;56.02;98812.38;7386764;19;20473;-84
2023/11/07 11:05:19;;;;;;;0.10;0.10;;;;;;;34.24;45.48;98800.31;7385657;19;20003;-82
2023/11/07 11:07:51;;;;;;;0.65;0.20;;;;;;;36.11;34.21;98796.38;7386376;19;20015;-84
2023/11/07 11:10:27;;;;;;;0.47;0.20;;;;;;;30.13;39.89;98803.28;7387235;19;20588;-84
2023/11/07 11:12:58;;;;;;;1.08;0.30;;;;;;;37.83;35.64;98794.31;7386726;19;20010;-84
2023/11/07 11:15:25;;;;;;;2.58;0.75;;;;;;;38.32;32.53;98787.31;7389037;19;20366;-84
2023/11/07 11:18:05;;;;;;;0.32;0.15;;;;;;;39.54;30.24;98788.00;7388948;19;20104;-84
2023/11/07 11:20:41;;;;;;;0.75;0.20;;;;;;;42.36;27.54;98784.03;7389722;19;20018;-84
2023/11/07 11:23:18;;;;;;;0.10;0.10;;;;;;;39.81;27.65;98798.59;7387093;19;20476;-84
2023/11/07 11:26:00;;;;;;;0.15;0.15;;;;;;;42.08;26.70;98790.53;7385797;19;20002;-84
2023/11/07 11:28:44;;;;;;;24.58;1.48;;;;;;;38.20;28.64;98784.16;7388481;19;20010;-85
2023/11/07 11:31:14;;;;;;;0.00;0.00;;;;;;;35.36;30.12;98796.22;7393449;19;20027;-85
2023/11/07 11:33:45;;;;;;;0.10;0.10;;;;;;;33.08;32.60;98801.50;7395584;19;20007;-85
2023/11/07 11:36:44;;;;;;;0.30;0.30;;;;;;;24.02;47.46;98817.41;7395561;19;20019;-85
2023/11/07 11:39:36;;;;;;;0.10;0.10;;;;;;;22.01;59.77;98828.56;7395394;19;20014;-88